Time;durP1;ratioP1;P1;durP2;ratioP2;P2;SDS_P1;SDS_P2;PMS_P1;PMS_P2;Temp;Humidity;BMP_temperature;BMP_pressure;BME280_temperature;BME280_humidity;BME280_pressure;Samples;Min_cycle;Max_cycle;Signal;HPM_P1;HPM_P2
2023/03/29 04:06:42;;;;;;;7.47;4.68;;;;;;;2.90;62.14;101378.41;5606635;31;78443;-55
2023/03/29 04:09:49;;;;;;;10.27;5.57;;;;;;;2.90;62.14;101378.41;5601600;31;32145;-54
2023/03/29 04:12:52;;;;;;;9.52;4.30;;;;;;;2.68;83.76;101377.81;5597892;31;34596;-55
2023/03/29 04:15:57;;;;;;;9.25;5.47;;;;;;;2.70;73.60;101373.09;5587757;31;33237;-55
2023/03/29 04:19:02;;;;;;;9.43;5.37;;;;;;;2.62;60.95;101375.16;5600636;31;33469;-55
2023/03/29 04:22:05;;;;;;;10.48;5.28;;;;;;;2.72;57.06;101368.44;5602318;31;34400;-55
2023/03/29 04:25:09;;;;;;;14.57;5.55;;;;;;;2.64;55.71;101371.25;5600555;31;34496;-55
2023/03/29 04:28:13;;;;;;;10.73;5.53;;;;;;;2.88;54.28;101369.03;5571357;31;33616;-54
2023/03/29 04:31:15;;;;;;;10.57;5.45;;;;;;;2.76;60.50;101364.34;5582925;31;33349;-55
2023/03/29 04:34:18;;;;;;;8.77;5.22;;;;;;;2.71;56.04;101360.66;5583834;31;33494;-54
2023/03/29 04:37:21;;;;;;;10.40;5.95;;;;;;;2.85;68.00;101364.97;5583456;31;34231;-55
2023/03/29 04:40:24;;;;;;;17.30;7.50;;;;;;;3.11;71.31;101369.41;5577597;31;34611;-55
2023/03/29 04:43:28;;;;;;;23.12;8.30;;;;;;;2.89;54.54;101382.06;5583373;31;32777;-55
2023/03/29 04:46:33;;;;;;;17.15;8.73;;;;;;;2.93;53.73;101380.62;5582396;32;34391;-55
2023/03/29 04:49:38;;;;;;;19.12;8.55;;;;;;;2.83;55.18;101383.69;5572130;31;33524;-55
2023/03/29 04:52:44;;;;;;;17.00;8.10;;;;;;;2.93;53.71;101387.78;5563672;32;34071;-55
2023/03/29 04:55:46;;;;;;;15.95;8.40;;;;;;;2.88;53.38;101385.75;5563904;32;33399;-55
2023/03/29 04:58:51;;;;;;;10.98;6.85;;;;;;;2.77;55.87;101391.62;5578629;32;33451;-55
2023/03/29 05:01:55;;;;;;;14.77;7.15;;;;;;;2.78;55.91;101395.91;5582151;31;33335;-56
2023/03/29 05:04:58;;;;;;;14.70;6.45;;;;;;;2.91;55.94;101398.56;5562922;32;33847;-55
2023/03/29 05:08:00;;;;;;;15.50;6.60;;;;;;;2.79;54.65;101401.00;5576739;31;34473;-55
2023/03/29 05:11:09;;;;;;;14.85;6.57;;;;;;;2.94;54.26;101395.50;5583019;31;33449;-55
2023/03/29 05:14:11;;;;;;;15.98;7.28;;;;;;;3.11;54.52;101395.87;5582155;31;33902;-54
2023/03/29 05:17:18;;;;;;;15.43;7.37;;;;;;;3.10;54.04;101398.75;5572656;31;31723;-55
2023/03/29 05:20:21;;;;;;;23.27;10.20;;;;;;;3.12;53.13;101400.19;5555665;31;34355;-55
2023/03/29 05:23:24;;;;;;;23.08;9.95;;;;;;;3.03;53.11;101404.06;5563064;32;33834;-55
2023/03/29 05:26:28;;;;;;;19.08;9.10;;;;;;;3.20;52.75;101393.84;5569433;31;34502;-55
2023/03/29 05:29:31;;;;;;;19.25;8.70;;;;;;;3.25;53.66;101400.19;5569767;31;33406;-55
2023/03/29 05:32:37;;;;;;;17.25;8.27;;;;;;;3.26;70.67;101398.34;5569640;31;33417;-55
2023/03/29 05:35:40;;;;;;;20.62;8.70;;;;;;;3.29;53.15;101396.09;5569677;31;34351;-55
2023/03/29 05:38:45;;;;;;;18.05;9.55;;;;;;;3.41;52.54;101385.66;5569818;31;33472;-54
2023/03/29 05:41:48;;;;;;;22.23;9.43;;;;;;;3.66;59.21;101399.03;5569900;31;33303;-54
2023/03/29 05:44:53;;;;;;;21.27;10.27;;;;;;;3.63;53.23;101390.69;5569135;32;34067;-55
2023/03/29 05:47:56;;;;;;;16.02;7.57;;;;;;;3.65;53.21;101394.78;5567162;32;34314;-55
2023/03/29 05:50:59;;;;;;;18.42;7.57;;;;;;;3.63;51.93;101396.00;5569168;32;34414;-55
2023/03/29 05:54:03;;;;;;;12.30;5.87;;;;;;;3.74;51.52;101403.28;5554038;32;33742;-55
2023/03/29 05:57:05;;;;;;;12.93;5.57;;;;;;;3.54;51.43;101398.06;5549753;32;34330;-54
2023/03/29 06:00:20;;;;;;;10.27;4.40;;;;;;;3.65;52.56;101394.78;5564072;32;33416;-54
2023/03/29 06:03:26;;;;;;;12.50;4.47;;;;;;;3.64;50.24;101401.09;5568015;31;34462;-54
2023/03/29 06:06:35;;;;;;;10.32;4.35;;;;;;;3.76;50.86;101401.25;5568967;31;33354;-55
2023/03/29 06:09:38;;;;;;;7.93;3.60;;;;;;;3.92;49.74;101399.97;5567862;32;33780;-54
2023/03/29 06:12:41;;;;;;;9.80;3.87;;;;;;;3.81;49.16;101406.75;5563847;32;33431;-55
2023/03/29 06:15:44;;;;;;;6.57;3.60;;;;;;;3.92;49.23;101408.75;5560377;32;32033;-54
2023/03/29 06:18:46;;;;;;;9.23;4.50;;;;;;;4.00;49.00;101407.69;5564017;32;33387;-55
2023/03/29 06:21:52;;;;;;;8.02;4.20;;;;;;;3.93;49.28;101406.91;5567483;32;33692;-55
2023/03/29 06:24:54;;;;;;;11.95;5.55;;;;;;;4.03;47.97;101401.12;5565267;31;33263;-55
2023/03/29 06:27:57;;;;;;;14.05;6.00;;;;;;;4.00;49.77;101407.69;5563837;32;33644;-55
2023/03/29 06:31:00;;;;;;;10.32;5.47;;;;;;;3.97;51.81;101411.59;5567442;31;34319;-55
2023/03/29 06:34:06;;;;;;;;;;;;;;;4.14;48.62;101416.37;5563600;32;31603;-55
2023/03/29 06:37:11;;;;;;;9.27;5.47;;;;;;;4.13;49.53;101423.53;5567471;31;34759;-54
2023/03/29 06:40:20;;;;;;;10.07;5.12;;;;;;;4.24;51.16;101419.44;5567646;31;34323;-54
2023/03/29 06:43:22;;;;;;;9.70;4.78;;;;;;;4.30;49.25;101412.44;5549686;32;33793;-55
2023/03/29 06:46:26;;;;;;;7.95;4.93;;;;;;;4.13;48.67;101415.56;5568316;31;32725;-55
2023/03/29 06:49:29;;;;;;;11.12;5.70;;;;;;;4.16;48.58;101420.47;5568473;32;34206;-55
2023/03/29 06:52:32;;;;;;;14.45;5.75;;;;;;;4.26;48.10;101417.34;5563732;31;32920;-56
2023/03/29 06:55:35;;;;;;;10.98;5.93;;;;;;;4.28;51.54;101417.97;5565700;32;33262;-55
2023/03/29 06:58:41;;;;;;;11.57;5.93;;;;;;;4.34;48.50;101418.94;5560254;31;34947;-55
2023/03/29 07:01:46;;;;;;;10.60;5.68;;;;;;;4.32;47.79;101419.16;5568190;31;33175;-55
2023/03/29 07:04:49;;;;;;;14.38;5.05;;;;;;;4.49;48.74;101422.12;5554281;32;33662;-54
2023/03/29 07:07:58;;;;;;;9.18;4.87;;;;;;;4.63;49.80;101421.00;5568183;31;32269;-55
2023/03/29 07:11:03;;;;;;;8.60;4.28;;;;;;;4.75;48.54;101429.09;5561872;32;31646;-55
2023/03/29 07:14:09;;;;;;;10.20;4.22;;;;;;;4.92;47.43;101438.16;5553806;32;32518;-56
2023/03/29 07:17:12;;;;;;;8.63;4.40;;;;;;;4.93;46.32;101436.31;5552979;32;32140;-55
2023/03/29 07:20:15;;;;;;;8.77;4.37;;;;;;;4.88;46.51;101441.47;5559123;32;33279;-55
2023/03/29 07:23:18;;;;;;;9.18;4.55;;;;;;;4.88;47.50;101442.28;5567717;31;33153;-55
2023/03/29 07:26:21;;;;;;;8.45;4.32;;;;;;;4.98;49.41;101444.47;5560767;32;32943;-56
2023/03/29 07:29:31;;;;;;;7.90;4.40;;;;;;;5.09;47.86;101442.94;5567502;32;33243;-55
2023/03/29 07:32:35;;;;;;;9.18;4.62;;;;;;;5.17;47.25;101448.78;5565954;32;33676;-56
2023/03/29 07:35:42;;;;;;;13.57;4.60;;;;;;;5.23;46.55;101448.94;5567328;31;33577;-55
2023/03/29 07:38:44;;;;;;;6.87;4.18;;;;;;;5.30;47.83;101455.84;5564274;32;33869;-55
2023/03/29 07:41:48;;;;;;;7.30;5.10;;;;;;;5.51;46.00;101457.28;5562607;31;32710;-55
2023/03/29 07:44:51;;;;;;;7.40;4.22;;;;;;;5.55;46.43;101455.78;5554821;31;31951;-56
2023/03/29 07:47:56;;;;;;;8.15;4.32;;;;;;;5.52;46.78;101458.91;5554700;32;34398;-55
2023/03/29 07:50:59;;;;;;;8.70;4.00;;;;;;;5.64;47.28;101448.34;5560114;32;33364;-55
2023/03/29 07:54:02;;;;;;;8.23;4.18;;;;;;;5.84;48.47;101450.78;5559707;31;33289;-56
2023/03/29 07:57:05;;;;;;;8.50;4.32;;;;;;;6.06;52.68;101454.66;5562555;32;32539;-55
2023/03/29 08:00:13;;;;;;;6.68;3.72;;;;;;;5.97;45.78;101452.53;5560357;31;33959;-55
2023/03/29 08:03:16;;;;;;;6.37;3.75;;;;;;;5.94;45.65;101459.09;5559675;32;33832;-55
2023/03/29 08:10:10;;;;;;;7.07;3.65;;;;;;;5.95;47.17;101457.25;5758339;27;20130;-86
2023/03/29 08:13:15;;;;;;;6.07;3.17;;;;;;;5.96;47.23;101457.03;5372804;33;34472;-85
2023/03/29 08:16:18;;;;;;;7.35;3.72;;;;;;;6.08;45.50;101454.41;5378675;33;32423;-85
2023/03/29 08:19:21;;;;;;;6.45;3.83;;;;;;;6.20;45.11;101451.84;5375903;33;34127;-85
2023/03/29 08:22:24;;;;;;;6.03;3.20;;;;;;;6.23;42.94;101449.53;5369761;33;33540;-86
2023/03/29 08:25:30;;;;;;;7.32;3.28;;;;;;;6.36;44.46;101448.53;5371069;33;32540;-86
2023/03/29 08:28:33;;;;;;;5.40;3.10;;;;;;;6.39;44.71;101448.09;5367447;33;32718;-86
2023/03/29 08:31:37;;;;;;;4.35;2.50;;;;;;;6.54;43.08;101443.16;5377707;33;34067;-86
2023/03/29 08:34:41;;;;;;;4.22;2.50;;;;;;;6.55;40.80;101443.97;5374600;33;33731;-86
2023/03/29 08:37:46;;;;;;;4.85;2.20;;;;;;;6.64;50.68;101439.12;5371506;33;31805;-87
2023/03/29 08:40:49;;;;;;;4.20;2.25;;;;;;;6.61;42.39;101445.72;5361613;33;32068;-86
2023/03/29 08:44:10;;;;;;;5.32;3.05;;;;;;;6.73;39.82;101448.44;5369220;33;34466;-86
2023/03/29 08:47:19;;;;;;;4.70;2.28;;;;;;;6.82;41.42;101453.19;5365199;33;32745;-86
2023/03/29 08:50:31;;;;;;;4.80;2.55;;;;;;;6.80;39.54;101443.81;5374304;33;33717;-87
2023/03/29 08:54:12;;;;;;;6.32;2.20;;;;;;;6.87;40.77;101443.69;5372008;33;33714;-86
2023/03/29 08:57:31;;;;;;;5.05;2.17;;;;;;;7.09;45.02;101444.78;5352202;33;31850;-85
2023/03/29 09:00:40;;;;;;;5.62;2.00;;;;;;;7.06;39.66;101437.25;5371614;33;32176;-85
2023/03/29 09:03:48;;;;;;;4.78;2.25;;;;;;;6.97;36.34;101423.44;5375737;33;33093;-86
2023/03/29 09:06:53;;;;;;;5.47;2.62;;;;;;;7.08;38.72;101419.13;5366765;33;32517;-86
2023/03/29 09:09:56;;;;;;;3.53;1.92;;;;;;;7.09;37.83;101417.31;5378696;33;33373;-86
2023/03/29 09:13:21;;;;;;;4.15;2.15;;;;;;;7.20;35.95;101413.81;5372956;33;33133;-85
2023/03/29 09:16:43;;;;;;;3.67;2.20;;;;;;;7.11;36.11;101412.53;5375141;33;34429;-86
2023/03/29 09:20:12;;;;;;;4.65;2.25;;;;;;;7.23;56.67;101403.50;5375284;33;32145;-87
2023/03/29 09:23:16;;;;;;;3.05;2.20;;;;;;;7.44;41.03;101407.41;5376286;33;33889;-87
2023/03/29 09:26:51;;;;;;;8.18;2.47;;;;;;;7.54;36.04;101394.28;5379861;33;33083;-85
2023/03/29 09:30:24;;;;;;;4.60;2.50;;;;;;;7.50;39.54;101398.47;5383302;33;33280;-86
2023/03/29 09:33:46;;;;;;;9.82;3.12;;;;;;;7.89;41.42;101395.28;5362857;33;33746;-87
2023/03/29 09:37:20;;;;;;;4.32;2.42;;;;;;;7.97;38.80;101392.22;5377378;33;33039;-86
2023/03/29 09:40:38;;;;;;;4.60;2.35;;;;;;;8.11;40.50;101390.06;5368237;33;31699;-87
2023/03/29 09:43:44;;;;;;;8.13;3.12;;;;;;;8.18;37.41;101383.53;5377043;33;33676;-87
2023/03/29 09:47:05;;;;;;;5.47;2.72;;;;;;;7.92;36.83;101384.12;5378582;33;32879;-85
2023/03/29 09:50:23;;;;;;;4.68;2.65;;;;;;;8.08;39.89;101378.03;5379453;33;31816;-86
2023/03/29 09:53:35;;;;;;;4.32;2.50;;;;;;;8.07;37.79;101372.91;5379296;33;32719;-87
2023/03/29 09:56:41;;;;;;;4.93;2.75;;;;;;;8.25;44.09;101367.38;5376371;33;34775;-86
2023/03/29 09:59:47;;;;;;;5.87;2.65;;;;;;;8.54;55.76;101362.00;5379870;33;31642;-86
2023/03/29 10:02:55;;;;;;;7.62;3.87;;;;;;;8.61;43.43;101362.63;5365197;33;33963;-85
2023/03/29 10:06:02;;;;;;;6.18;2.87;;;;;;;8.42;37.34;101360.22;5364996;33;34405;-86
2023/03/29 10:09:19;;;;;;;7.60;3.08;;;;;;;8.44;39.62;101349.28;5374755;33;32248;-86
2023/03/29 10:12:22;;;;;;;6.85;2.70;;;;;;;8.49;38.98;101345.91;5380448;33;33152;-86
2023/03/29 10:15:29;;;;;;;4.30;2.40;;;;;;;8.56;36.78;101342.00;5378522;33;33683;-87
2023/03/29 10:18:38;;;;;;;5.43;2.35;;;;;;;8.56;42.27;101342.00;5367293;33;34283;-83
2023/03/29 10:21:41;;;;;;;4.65;2.25;;;;;;;8.63;43.06;101339.16;5380129;33;33740;-82
2023/03/29 10:24:50;;;;;;;3.25;2.20;;;;;;;8.74;37.12;101334.78;5376789;33;34475;-83
2023/03/29 10:28:00;;;;;;;5.20;2.60;;;;;;;8.81;44.31;101338.13;5378724;33;33267;-82
2023/03/29 10:31:06;;;;;;;4.82;2.50;;;;;;;8.83;36.54;101331.44;5375719;33;33793;-81
2023/03/29 10:34:14;;;;;;;5.57;2.58;;;;;;;8.68;37.20;101328.56;5376208;33;34314;-83
2023/03/29 10:37:19;;;;;;;5.00;2.25;;;;;;;8.81;39.15;101322.88;5362739;33;34424;-83
2023/03/29 10:40:34;;;;;;;4.65;2.58;;;;;;;8.81;40.74;101319.41;5376297;33;33636;-82
2023/03/29 10:43:43;;;;;;;5.95;3.22;;;;;;;9.08;43.64;101319.50;5377054;33;32848;-82
2023/03/29 10:46:45;;;;;;;5.30;2.87;;;;;;;9.11;37.45;101313.66;5376389;33;33761;-86
2023/03/29 10:49:52;;;;;;;3.80;2.35;;;;;;;9.22;38.17;101314.59;5367699;33;34404;-82
2023/03/29 10:52:59;;;;;;;4.78;2.22;;;;;;;9.27;38.70;101310.12;5378417;33;33687;-80
2023/03/29 10:56:21;;;;;;;5.00;2.45;;;;;;;9.35;38.02;101308.88;5364762;33;33614;-81
2023/03/29 10:59:27;;;;;;;6.35;2.60;;;;;;;9.41;44.43;101305.22;5362062;33;33688;-81
2023/03/29 11:03:08;;;;;;;5.75;2.87;;;;;;;9.35;44.73;101307.00;5357351;33;33348;-80
2023/03/29 11:06:15;;;;;;;4.37;2.85;;;;;;;9.27;41.90;101306.62;5374161;33;34641;-81
2023/03/29 11:09:31;;;;;;;5.28;2.92;;;;;;;9.20;50.69;101298.78;5376592;33;33601;-83
2023/03/29 11:13:11;;;;;;;8.70;2.92;;;;;;;9.24;41.82;101299.94;5364603;33;33456;-84
2023/03/29 11:16:25;;;;;;;7.22;2.75;;;;;;;9.24;39.19;101296.41;5359145;33;35353;-82
2023/03/29 11:19:43;;;;;;;4.60;2.78;;;;;;;9.39;64.86;101288.59;5378161;33;34289;-83
2023/03/29 11:22:58;;;;;;;5.80;3.30;;;;;;;9.40;40.71;101288.34;5375846;33;35862;-84
2023/03/29 11:26:03;;;;;;;4.75;2.97;;;;;;;9.35;40.25;101290.16;5377138;33;33791;-82
2023/03/29 11:29:24;;;;;;;5.50;2.83;;;;;;;9.38;40.15;101293.12;5375324;33;33774;-81
2023/03/29 11:32:47;;;;;;;4.65;2.72;;;;;;;9.43;42.39;101287.03;5379791;33;32003;-81
2023/03/29 11:35:59;;;;;;;4.62;3.50;;;;;;;9.69;64.62;101284.63;5378840;33;33439;-82
2023/03/29 11:39:18;;;;;;;5.65;2.90;;;;;;;10.11;41.72;101276.75;5377198;33;33689;-81
2023/03/29 11:42:24;;;;;;;4.40;2.40;;;;;;;10.05;40.39;101262.50;5376022;33;33901;-81
2023/03/29 11:45:47;;;;;;;6.37;2.42;;;;;;;9.82;36.66;101265.50;5377014;33;34822;-82
2023/03/29 11:49:14;;;;;;;5.93;2.50;;;;;;;9.74;36.66;101264.09;5375455;33;33889;-82
2023/03/29 11:52:41;;;;;;;5.03;3.03;;;;;;;9.89;42.58;101266.88;5368002;33;33800;-81
2023/03/29 11:55:46;;;;;;;6.25;2.47;;;;;;;9.93;42.23;101256.47;5361148;33;33740;-81
2023/03/29 11:58:55;;;;;;;4.70;3.00;;;;;;;9.87;37.87;101255.66;5375337;33;33835;-84
2023/03/29 12:02:12;;;;;;;7.22;2.92;;;;;;;9.85;38.61;101263.09;5373748;33;33584;-81
2023/03/29 12:05:14;;;;;;;;;;;;;;;9.67;36.04;101257.28;5379455;33;33825;-81
2023/03/29 12:08:37;;;;;;;4.72;2.87;;;;;;;9.90;52.26;101240.94;5379457;33;34553;-83
2023/03/29 12:11:49;;;;;;;6.78;3.12;;;;;;;10.26;42.36;101247.41;5379238;33;34464;-81
2023/03/29 12:15:19;;;;;;;6.62;2.97;;;;;;;10.08;48.52;101240.53;5379733;33;33729;-81
2023/03/29 12:18:24;;;;;;;4.75;2.47;;;;;;;10.53;47.27;101239.31;5379255;33;33007;-83
2023/03/29 12:21:28;;;;;;;5.43;2.80;;;;;;;10.50;49.57;101226.41;5368293;33;34421;-81
2023/03/29 12:24:33;;;;;;;5.90;2.90;;;;;;;10.35;37.91;101223.63;5383805;33;31990;-82
2023/03/29 12:28:05;;;;;;;4.03;2.80;;;;;;;10.20;36.58;101218.12;5379329;33;33458;-85
2023/03/29 12:31:21;;;;;;;4.95;3.12;;;;;;;10.11;37.85;101210.56;5379505;33;33583;-80
2023/03/29 12:34:29;;;;;;;3.92;2.65;;;;;;;10.08;38.34;101200.38;5380155;33;34368;-81
2023/03/29 12:37:56;;;;;;;4.93;2.90;;;;;;;10.15;42.29;101208.19;5380828;33;34582;-81
2023/03/29 12:41:13;;;;;;;5.55;2.70;;;;;;;10.28;50.92;101209.66;5362663;33;31999;-81
2023/03/29 12:44:22;;;;;;;4.28;2.72;;;;;;;10.78;50.32;101208.31;5371650;33;34309;-81
2023/03/29 12:47:32;;;;;;;5.78;3.05;;;;;;;10.84;46.13;101201.12;5380209;33;33784;-81
2023/03/29 12:51:00;;;;;;;4.82;3.03;;;;;;;10.84;41.25;101203.81;5380239;33;33613;-81
2023/03/29 12:54:02;;;;;;;5.97;3.00;;;;;;;10.65;41.85;101190.03;5378610;33;33700;-81
2023/03/29 12:57:40;;;;;;;5.50;3.50;;;;;;;10.37;38.25;101202.75;5365108;33;34406;-82
2023/03/29 13:00:44;;;;;;;5.62;3.65;;;;;;;10.21;40.84;101196.44;5362541;33;32998;-81
2023/03/29 13:04:09;;;;;;;7.18;3.90;;;;;;;10.20;44.19;101199.34;5380301;33;33763;-82
2023/03/29 13:07:13;;;;;;;5.68;3.42;;;;;;;10.16;39.60;101187.56;5366729;33;33785;-81
2023/03/29 13:10:38;;;;;;;5.93;3.53;;;;;;;10.18;44.49;101188.12;5380667;32;34067;-82
2023/03/29 13:13:42;;;;;;;6.53;3.80;;;;;;;10.08;39.40;101180.81;5379541;33;34438;-81
2023/03/29 13:16:45;;;;;;;6.03;3.80;;;;;;;10.42;62.89;101185.87;5379512;33;33854;-85
2023/03/29 13:20:11;;;;;;;4.40;3.12;;;;;;;10.59;46.86;101170.41;5380261;33;32396;-83
2023/03/29 13:23:25;;;;;;;9.70;3.58;;;;;;;10.88;48.45;101178.06;5380032;33;34296;-84
2023/03/29 13:26:49;;;;;;;5.22;3.50;;;;;;;10.86;44.75;101170.28;5374294;33;33658;-81
2023/03/29 13:30:04;;;;;;;6.78;3.62;;;;;;;10.90;45.91;101170.56;5378943;33;33600;-85
2023/03/29 13:33:26;;;;;;;5.35;3.30;;;;;;;11.00;47.60;101163.34;5380228;33;33675;-84
2023/03/29 13:36:47;;;;;;;6.65;3.92;;;;;;;11.28;51.30;101158.59;5377659;33;33721;-82
2023/03/29 13:39:52;;;;;;;7.00;3.45;;;;;;;11.08;40.83;101158.53;5374071;33;33152;-82
2023/03/29 13:43:07;;;;;;;4.60;3.30;;;;;;;10.98;40.41;101157.44;5379708;33;33993;-83
2023/03/29 13:46:21;;;;;;;13.18;3.55;;;;;;;10.77;38.89;101158.44;5380070;33;34281;-81
2023/03/29 13:49:26;;;;;;;5.93;3.33;;;;;;;11.02;51.18;101155.03;5377527;33;34463;-81
2023/03/29 13:52:50;;;;;;;7.25;3.70;;;;;;;11.01;43.13;101142.69;5379197;33;33812;-84
2023/03/29 13:55:53;;;;;;;6.37;3.72;;;;;;;10.95;39.28;101136.50;5380427;33;33606;-81
2023/03/29 13:59:09;;;;;;;8.82;3.87;;;;;;;11.10;42.22;101135.75;5380486;33;33737;-80
2023/03/29 14:02:20;;;;;;;4.65;3.53;;;;;;;11.03;43.63;101144.06;5379758;33;33648;-82
2023/03/29 14:05:31;;;;;;;7.32;3.78;;;;;;;10.98;39.04;101141.34;5369440;33;33680;-84
2023/03/29 14:08:38;;;;;;;6.35;3.72;;;;;;;10.83;39.40;101133.25;5363794;33;33794;-80
2023/03/29 14:11:44;;;;;;;7.20;3.55;;;;;;;10.76;40.03;101144.25;5380437;33;33631;-82
2023/03/29 14:14:46;;;;;;;7.37;4.07;;;;;;;10.68;41.20;101135.88;5380885;33;33765;-84
2023/03/29 14:18:00;;;;;;;8.85;4.18;;;;;;;10.69;41.12;101132.91;5380672;33;33708;-81
2023/03/29 14:21:03;;;;;;;6.53;3.72;;;;;;;10.77;42.79;101127.06;5367541;33;33360;-83
2023/03/29 14:24:11;;;;;;;7.03;4.50;;;;;;;11.02;55.63;101120.97;5380615;33;34431;-82
2023/03/29 14:27:15;;;;;;;9.02;4.60;;;;;;;10.93;41.73;101119.88;5380785;33;34382;-81
2023/03/29 14:30:20;;;;;;;6.15;4.03;;;;;;;10.83;40.61;101127.91;5381034;33;33744;-82
2023/03/29 14:33:28;;;;;;;7.43;4.03;;;;;;;10.73;41.90;101123.31;5380624;33;33855;-81
2023/03/29 14:36:32;;;;;;;10.93;4.15;;;;;;;10.72;42.47;101126.22;5367743;33;34391;-81
2023/03/29 14:39:35;;;;;;;7.85;3.97;;;;;;;10.66;42.87;101127.28;5380571;33;33596;-82
2023/03/29 14:42:38;;;;;;;6.15;3.83;;;;;;;10.72;42.00;101120.88;5380722;33;33833;-82
2023/03/29 14:45:41;;;;;;;8.88;3.97;;;;;;;10.73;43.11;101111.78;5380657;33;33798;-81
2023/03/29 14:48:44;;;;;;;9.90;4.85;;;;;;;10.93;47.86;101113.72;5379659;33;33945;-81
2023/03/29 14:51:46;;;;;;;8.73;4.28;;;;;;;10.98;42.62;101117.19;5380533;33;33667;-81
2023/03/29 14:54:51;;;;;;;8.05;4.75;;;;;;;10.91;41.54;101107.78;5378944;33;34354;-81
2023/03/29 14:57:54;;;;;;;6.40;4.05;;;;;;;10.68;40.26;101109.06;5380664;33;34465;-82
2023/03/29 15:01:02;;;;;;;5.93;3.47;;;;;;;10.69;42.08;101106.09;5380488;33;33681;-81
2023/03/29 15:04:07;;;;;;;5.18;3.60;;;;;;;10.70;40.59;101109.62;5380712;33;34368;-81
2023/03/29 15:07:09;;;;;;;5.85;3.50;;;;;;;10.84;53.17;101109.94;5380404;33;33818;-81
2023/03/29 15:10:18;;;;;;;6.25;3.28;;;;;;;10.97;46.17;101096.81;5380389;33;33738;-81
2023/03/29 15:13:23;;;;;;;7.32;4.43;;;;;;;11.03;43.73;101095.75;5380248;33;33705;-81
2023/03/29 15:16:28;;;;;;;8.00;3.85;;;;;;;10.96;42.13;101095.22;5380731;33;31942;-80
2023/03/29 15:19:32;;;;;;;6.78;3.70;;;;;;;10.93;40.46;101094.94;5380319;33;33730;-81
2023/03/29 15:22:34;;;;;;;5.30;3.58;;;;;;;10.85;43.68;101088.19;5380522;33;33650;-81
2023/03/29 15:25:46;;;;;;;8.02;3.90;;;;;;;11.02;52.67;101096.00;5380318;33;33180;-81
2023/03/29 15:28:54;;;;;;;7.78;3.87;;;;;;;11.15;42.51;101084.75;5380252;33;34493;-81
2023/03/29 15:31:58;;;;;;;8.05;3.40;;;;;;;10.95;41.65;101087.41;5380405;33;34326;-80
2023/03/29 15:35:03;;;;;;;6.97;3.72;;;;;;;11.20;64.61;101090.16;5380255;33;33418;-81
2023/03/29 15:38:11;;;;;;;6.72;3.35;;;;;;;11.06;46.08;101086.38;5380326;33;33753;-81
2023/03/29 15:41:14;;;;;;;7.37;3.58;;;;;;;11.39;49.23;101081.56;5380199;33;34320;-81
